Time;durP1;ratioP1;P1;durP2;ratioP2;P2;SDS_P1;SDS_P2;PMS_P1;PMS_P2;Temp;Humidity;BMP_temperature;BMP_pressure;BME280_temperature;BME280_humidity;BME280_pressure;Samples;Min_cycle;Max_cycle;Signal;HPM_P1;HPM_P2
2023/08/04 00:01:00;;;;;;;2.77;0.88;;;;;;;20.38;80.50;99629.27;5044086;56;1136903;-67
2023/08/04 00:06:13;;;;;;;8.40;0.70;;;;;;;20.34;80.73;99634.18;5063249;56;1136635;-69
2023/08/04 00:11:18;;;;;;;1.53;1.40;;;;;;;20.26;81.40;99641.09;5044103;57;1136604;-69
2023/08/04 00:16:24;;;;;;;1.42;0.70;;;;;;;20.17;81.81;99640.13;5043255;57;1136931;-69
2023/08/04 00:21:29;;;;;;;1.80;0.82;;;;;;;20.10;82.47;99654.05;5063864;57;1136932;-69
2023/08/04 00:26:35;;;;;;;4.97;0.70;;;;;;;19.98;82.70;99657.33;5043906;56;1136931;-68
2023/08/04 00:31:41;;;;;;;2.30;0.78;;;;;;;19.93;82.99;99669.17;5112132;56;1136545;-70
2023/08/04 00:36:47;;;;;;;2.37;0.80;;;;;;;19.89;82.87;99671.10;5071107;56;1136601;-67
2023/08/04 00:41:53;;;;;;;2.30;0.70;;;;;;;19.81;83.11;99673.97;5044292;56;1136745;-67
2023/08/04 00:46:59;;;;;;;2.16;0.70;;;;;;;19.75;83.31;99666.19;5054053;56;1136663;-66
2023/08/04 00:52:05;;;;;;;1.30;0.80;;;;;;;19.67;83.99;99677.09;5055426;57;1136613;-68
2023/08/04 00:57:11;;;;;;;2.22;0.88;;;;;;;19.58;84.85;99684.97;5136000;56;1136552;-70
2023/08/04 01:02:18;;;;;;;7.30;0.50;;;;;;;19.50;84.97;99677.92;5139721;56;1136605;-67
2023/08/04 01:07:26;;;;;;;0.70;0.70;;;;;;;19.46;85.37;99677.97;5139921;56;1137002;-68
2023/08/04 01:12:45;;;;;;;0.80;0.80;;;;;;;19.42;85.47;99683.91;5158594;56;1136688;-69
2023/08/04 01:17:51;;;;;;;3.50;0.70;;;;;;;19.35;86.30;99688.42;5119009;56;1136864;-67
2023/08/04 01:22:57;;;;;;;3.08;0.95;;;;;;;19.28;86.23;99689.19;5138960;56;1136685;-68
2023/08/04 01:28:05;;;;;;;2.33;0.40;;;;;;;19.22;87.04;99698.03;5139384;56;1136524;-67
2023/08/04 01:33:12;;;;;;;2.10;0.57;;;;;;;19.15;87.31;99698.47;5079013;56;1136512;-66
2023/08/04 01:38:17;;;;;;;0.70;0.50;;;;;;;19.06;87.73;99706.86;5054234;57;1136556;-69
2023/08/04 01:43:23;;;;;;;2.50;0.90;;;;;;;19.00;87.79;99705.77;5054920;56;1136728;-69
2023/08/04 01:48:28;;;;;;;0.80;0.62;;;;;;;18.98;88.03;99701.11;5078635;56;1136471;-69
2023/08/04 01:53:34;;;;;;;3.70;0.70;;;;;;;18.91;88.92;99706.42;5059543;56;1136532;-66
2023/08/04 01:58:40;;;;;;;1.55;0.68;;;;;;;18.85;89.07;99703.67;4977695;56;1136721;-67
2023/08/04 02:03:45;;;;;;;3.02;0.50;;;;;;;18.81;89.15;99695.69;5077198;56;1136649;-69
2023/08/04 02:08:51;;;;;;;0.60;0.60;;;;;;;18.73;89.54;99706.05;5057302;56;1136582;-68
2023/08/04 02:13:57;;;;;;;0.78;0.30;;;;;;;18.75;89.57;99693.80;5057659;56;1136591;-67
2023/08/04 02:19:09;;;;;;;0.94;0.52;;;;;;;18.73;90.55;99697.17;5057914;56;1137153;-68
2023/08/04 02:24:15;;;;;;;0.50;0.50;;;;;;;18.67;90.68;99712.66;5077492;56;1136677;-68
2023/08/04 02:29:21;;;;;;;2.10;0.60;;;;;;;18.59;91.07;99714.97;5057254;56;1136501;-69
2023/08/04 02:34:26;;;;;;;1.32;0.45;;;;;;;18.57;91.43;99735.72;5057427;56;1136737;-68
2023/08/04 02:39:36;;;;;;;0.50;0.50;;;;;;;18.51;91.72;99725.75;5076832;56;1136583;-68
2023/08/04 02:44:42;;;;;;;0.47;0.47;;;;;;;18.42;92.67;99729.06;5057662;56;1136724;-68
2023/08/04 02:49:47;;;;;;;4.28;0.60;;;;;;;18.36;93.31;99731.66;5116737;56;1136694;-70
2023/08/04 02:54:57;;;;;;;1.57;0.57;;;;;;;18.34;93.94;99736.36;5140815;56;1136691;-70
2023/08/04 03:00:03;;;;;;;0.42;0.30;;;;;;;18.28;94.24;99738.80;5092370;56;1136495;-67
2023/08/04 03:05:09;;;;;;;1.07;0.50;;;;;;;18.24;94.01;99751.39;5143732;56;1136907;-66
2023/08/04 03:10:14;;;;;;;1.57;0.70;;;;;;;18.23;94.11;99761.77;5157496;56;1136633;-68
2023/08/04 03:15:20;;;;;;;2.67;0.75;;;;;;;18.20;94.60;99777.70;5105122;56;1136388;-65
2023/08/04 03:20:26;;;;;;;5.40;0.80;;;;;;;18.11;95.13;99787.36;5029107;56;1136649;-70
2023/08/04 03:25:31;;;;;;;0.78;0.60;;;;;;;18.05;95.83;99788.91;4970541;58;1136350;-66
2023/08/04 03:30:37;;;;;;;1.85;0.72;;;;;;;17.99;95.91;99784.32;4968833;57;1136530;-68
2023/08/04 03:35:43;;;;;;;1.07;0.60;;;;;;;17.95;97.21;99798.23;4956924;57;1136540;-68
2023/08/04 03:40:48;;;;;;;1.87;0.95;;;;;;;17.91;97.30;99812.48;4975159;57;1136473;-66
2023/08/04 03:45:54;;;;;;;3.22;0.93;;;;;;;17.90;98.52;99812.99;5048971;56;1136880;-70
2023/08/04 03:51:00;;;;;;;0.85;0.50;;;;;;;17.85;98.70;99830.12;5043515;56;1136825;-68
2023/08/04 03:56:06;;;;;;;3.13;0.60;;;;;;;17.86;99.58;99824.27;5023505;57;1137034;-67
2023/08/04 04:01:12;;;;;;;0.82;0.65;;;;;;;17.83;99.92;99809.41;5043534;56;1136599;-65
2023/08/04 04:06:17;;;;;;;2.30;0.60;;;;;;;17.84;100.00;99817.76;5026446;56;1136735;-67
2023/08/04 04:11:23;;;;;;;3.60;0.47;;;;;;;17.84;100.00;99817.76;5067525;56;1138632;-68
2023/08/04 04:16:30;;;;;;;4.25;0.78;;;;;;;17.82;100.00;99845.19;4949444;58;1139004;-66
2023/08/04 04:21:35;;;;;;;1.65;0.60;;;;;;;17.81;100.00;99825.31;4958529;58;1138582;-67
2023/08/04 04:26:41;;;;;;;3.62;0.47;;;;;;;17.85;100.00;99823.94;5127671;56;1138734;-68
2023/08/04 04:31:47;;;;;;;4.28;0.80;;;;;;;17.87;100.00;99825.93;5146112;56;1138511;-68
2023/08/04 04:36:54;;;;;;;2.40;0.50;;;;;;;17.88;100.00;99823.05;5049452;56;1138832;-69
2023/08/04 04:41:59;;;;;;;1.00;0.60;;;;;;;17.90;100.00;99830.38;5043652;57;1138594;-67
2023/08/04 04:47:06;;;;;;;0.40;0.37;;;;;;;17.90;100.00;99833.05;5052591;57;1138982;-67
2023/08/04 04:52:15;;;;;;;0.93;0.50;;;;;;;17.93;100.00;99838.05;5063257;56;1138769;-68
2023/08/04 04:57:21;;;;;;;1.80;0.50;;;;;;;18.01;100.00;99837.15;5028156;57;1139180;-66
2023/08/04 05:02:26;;;;;;;2.17;0.60;;;;;;;18.08;100.00;99838.56;5080761;56;1138848;-67
2023/08/04 05:07:32;;;;;;;2.17;0.40;;;;;;;18.15;100.00;99848.87;5102572;56;1138997;-68
2023/08/04 05:12:38;;;;;;;3.12;0.50;;;;;;;18.22;100.00;99845.77;5120760;56;1138417;-66
2023/08/04 05:17:49;;;;;;;7.65;0.72;;;;;;;18.34;100.00;99850.14;5094443;56;1138595;-67
2023/08/04 05:22:52;;;;;;;0.60;0.60;;;;;;;18.41;100.00;99871.16;5227893;56;1138667;-67
2023/08/04 05:27:57;;;;;;;1.17;0.70;;;;;;;18.53;100.00;99891.09;5200714;56;1138731;-66
2023/08/04 05:33:03;;;;;;;0.72;0.57;;;;;;;18.68;100.00;99895.96;5130924;56;1138733;-67
2023/08/04 05:38:08;;;;;;;0.30;0.30;;;;;;;18.81;100.00;99896.63;5083245;57;1138458;-68
2023/08/04 05:43:15;;;;;;;0.40;0.40;;;;;;;18.93;100.00;99889.80;5062770;57;1138712;-67
2023/08/04 05:48:20;;;;;;;1.34;0.70;;;;;;;19.02;100.00;99892.67;5043171;56;1138426;-66
2023/08/04 05:53:26;;;;;;;2.40;0.60;;;;;;;19.23;100.00;99890.03;5155847;56;1138759;-67
2023/08/04 05:58:32;;;;;;;0.40;0.40;;;;;;;19.26;100.00;99907.56;5129141;56;1138834;-66
2023/08/04 06:03:37;;;;;;;0.40;0.40;;;;;;;19.24;100.00;99899.74;5137700;56;1138750;-68
2023/08/04 06:08:43;;;;;;;1.17;0.45;;;;;;;19.23;100.00;99904.78;5158254;56;1138918;-66
2023/08/04 06:13:49;;;;;;;1.52;0.75;;;;;;;19.22;100.00;99903.63;5107826;56;1138380;-67
2023/08/04 06:18:54;;;;;;;1.20;0.60;;;;;;;19.22;100.00;99918.38;4983250;56;1138629;-67
2023/08/04 06:24:00;;;;;;;1.10;0.70;;;;;;;19.22;100.00;99902.28;5067020;56;1138923;-64
2023/08/04 06:29:05;;;;;;;1.40;0.55;;;;;;;19.22;100.00;99899.09;5111348;56;1138893;-65
2023/08/04 06:34:12;;;;;;;0.60;0.57;;;;;;;19.24;100.00;99906.95;5134024;56;1138863;-66
2023/08/04 06:39:18;;;;;;;2.52;0.72;;;;;;;19.24;100.00;99906.95;5053193;57;1138865;-65
2023/08/04 06:44:23;;;;;;;1.95;0.60;;;;;;;19.42;100.00;99920.73;5079293;56;1138457;-66
2023/08/04 06:49:29;;;;;;;3.30;0.80;;;;;;;19.61;100.00;99917.45;5042682;56;1138578;-68
2023/08/04 06:54:35;;;;;;;0.80;0.80;;;;;;;19.77;100.00;99917.70;5137111;56;1138547;-66
2023/08/04 06:59:41;;;;;;;2.20;0.50;;;;;;;19.84;100.00;99913.24;5097030;56;1138778;-66
2023/08/04 07:04:46;;;;;;;0.50;0.50;;;;;;;19.75;100.00;99943.90;5051555;56;1138784;-66
2023/08/04 07:09:52;;;;;;;4.08;1.07;;;;;;;19.76;100.00;99935.34;5083788;56;1138786;-65
2023/08/04 07:14:59;;;;;;;1.22;0.60;;;;;;;19.95;100.00;99938.72;5238333;56;1138693;-68
2023/08/04 07:20:05;;;;;;;1.15;0.80;;;;;;;20.07;100.00;99959.98;5142131;56;1138851;-67
2023/08/04 07:25:11;;;;;;;0.82;0.53;;;;;;;20.07;100.00;99971.23;5079248;56;1138851;-66
2023/08/04 07:30:16;;;;;;;1.15;0.70;;;;;;;20.05;100.00;99974.61;5105887;56;1138843;-66
2023/08/04 07:35:22;;;;;;;0.70;0.70;;;;;;;19.92;100.00;99986.91;5103891;56;1138763;-66
2023/08/04 07:40:27;;;;;;;1.67;1.15;;;;;;;19.86;100.00;99995.70;5074664;56;1139169;-66
2023/08/04 07:45:37;;;;;;;2.35;0.80;;;;;;;19.91;100.00;99994.63;5175828;56;1139076;-66
2023/08/04 07:50:46;;;;;;;0.88;0.78;;;;;;;20.07;100.00;100015.02;5162355;57;1138875;-67
2023/08/04 07:55:58;;;;;;;1.27;1.12;;;;;;;20.18;100.00;100013.66;5019527;57;1140832;-65
2023/08/04 08:01:04;;;;;;;3.47;0.70;;;;;;;20.14;100.00;100011.06;5039298;57;1140828;-66
2023/08/04 08:06:09;;;;;;;3.47;1.00;;;;;;;20.19;100.00;100000.55;5059739;57;1140832;-66
2023/08/04 08:11:15;;;;;;;6.58;0.90;;;;;;;20.24;100.00;100011.04;5053442;56;1176535;-65
2023/08/04 08:16:20;;;;;;;1.00;1.00;;;;;;;20.28;100.00;100008.30;5065777;56;1141228;-65
2023/08/04 08:21:26;;;;;;;1.07;0.60;;;;;;;20.43;100.00;100010.09;5109549;56;1140852;-66
2023/08/04 08:26:31;;;;;;;1.15;1.00;;;;;;;20.57;100.00;100020.73;5063733;56;1140717;-66
2023/08/04 08:31:38;;;;;;;0.93;0.70;;;;;;;20.64;100.00;100035.03;5099796;56;1140928;-65
2023/08/04 08:36:44;;;;;;;1.22;0.72;;;;;;;20.61;100.00;100045.37;5142598;56;1140829;-66
2023/08/04 08:41:50;;;;;;;2.05;0.90;;;;;;;20.52;100.00;100046.52;5074565;56;1140592;-66
2023/08/04 08:46:55;;;;;;;1.52;1.20;;;;;;;20.54;99.54;100048.50;5124273;56;1183554;-67
2023/08/04 08:52:01;;;;;;;2.87;1.60;;;;;;;20.43;99.31;100063.30;5106124;56;1181971;-66
2023/08/04 08:57:08;;;;;;;2.83;2.20;;;;;;;20.44;100.00;100064.97;5080239;56;1138968;-66
2023/08/04 09:02:14;;;;;;;3.40;1.85;;;;;;;20.59;99.31;100068.40;4992447;58;1141111;-66
2023/08/04 09:07:20;;;;;;;4.62;1.70;;;;;;;20.90;100.00;100068.00;4971906;58;1244577;-65
2023/08/04 09:12:27;;;;;;;16.20;4.62;;;;;;;21.14;97.24;100075.27;4972882;58;1141325;-66
2023/08/04 09:17:35;;;;;;;2.80;1.10;;;;;;;21.13;97.53;100089.23;5076150;57;1140967;-66
2023/08/04 09:22:45;;;;;;;2.65;1.62;;;;;;;21.08;96.46;100084.98;5055571;57;1138950;-66
2023/08/04 09:27:51;;;;;;;2.87;1.37;;;;;;;21.16;98.83;100090.19;5056262;57;1138714;-66
2023/08/04 09:32:57;;;;;;;1.70;1.05;;;;;;;21.40;98.16;100086.19;5081141;56;1240972;-66
2023/08/04 09:38:03;;;;;;;1.12;0.70;;;;;;;21.32;94.80;100094.44;5074678;56;1229583;-66
2023/08/04 09:43:09;;;;;;;2.08;0.93;;;;;;;21.08;93.53;100099.77;5055375;57;1237136;-66
2023/08/04 09:48:15;;;;;;;3.00;1.67;;;;;;;20.98;95.20;100096.58;5076742;57;1138705;-66
2023/08/04 09:53:20;;;;;;;1.27;0.90;;;;;;;20.96;94.84;100099.45;5053575;57;1253658;-66
2023/08/04 09:58:27;;;;;;;1.72;0.93;;;;;;;21.14;94.58;100109.72;5054680;57;1230856;-66
2023/08/04 10:03:38;;;;;;;2.05;1.00;;;;;;;21.32;93.78;100103.86;5069919;56;1139538;-66
2023/08/04 10:08:44;;;;;;;2.43;1.40;;;;;;;21.59;93.43;100111.54;5042803;56;1170193;-66
2023/08/04 10:13:55;;;;;;;2.27;1.07;;;;;;;21.67;92.90;100106.83;5041110;57;1227482;-65
2023/08/04 10:19:09;;;;;;;1.40;0.90;;;;;;;21.69;91.71;100115.51;5039807;57;1239865;-67
2023/08/04 10:24:17;;;;;;;3.17;1.45;;;;;;;21.66;92.11;100121.32;5059849;57;1244436;-66
2023/08/04 10:29:33;;;;;;;4.35;1.02;;;;;;;21.75;91.54;100140.29;5056136;56;1248118;-66
2023/08/04 10:34:46;;;;;;;1.12;1.02;;;;;;;21.87;91.05;100135.16;5083103;56;1246008;-66
2023/08/04 10:39:59;;;;;;;3.77;1.05;;;;;;;21.89;90.22;100139.83;4936998;58;1254748;-67
2023/08/04 10:45:09;;;;;;;8.60;1.80;;;;;;;21.85;91.13;100130.48;5043794;57;1141188;-67
2023/08/04 10:50:16;;;;;;;7.20;2.73;;;;;;;21.86;90.88;100139.39;5042157;56;1244764;-66
2023/08/04 10:55:21;;;;;;;1.75;1.30;;;;;;;21.93;91.00;100137.05;5061122;55;1249765;-66
2023/08/04 11:00:27;;;;;;;3.80;0.95;;;;;;;21.97;90.33;100143.70;5041602;56;1248240;-66
2023/08/04 11:05:33;;;;;;;1.20;1.10;;;;;;;22.14;90.08;100142.03;5051417;56;1245058;-67
2023/08/04 11:10:49;;;;;;;1.47;1.02;;;;;;;22.12;87.62;100134.66;5087711;56;1138595;-65
2023/08/04 11:15:55;;;;;;;2.33;1.00;;;;;;;21.99;87.59;100146.20;5139052;56;1138942;-66
2023/08/04 11:21:04;;;;;;;4.03;0.93;;;;;;;21.83;88.88;100149.23;5138475;56;1138847;-67
2023/08/04 11:26:10;;;;;;;1.10;1.00;;;;;;;21.90;90.10;100148.73;5052696;57;1231132;-65
2023/08/04 11:31:21;;;;;;;1.87;1.65;;;;;;;21.95;89.39;100147.11;5121297;56;1138674;-65
2023/08/04 11:36:29;;;;;;;4.03;1.00;;;;;;;22.17;88.04;100155.06;5066539;56;1173565;-66
2023/08/04 11:41:35;;;;;;;1.72;1.10;;;;;;;22.29;88.10;100163.72;5053586;57;1138657;-66
2023/08/04 11:46:41;;;;;;;1.72;0.80;;;;;;;22.44;87.56;100163.55;5073865;57;1138840;-66
2023/08/04 11:51:47;;;;;;;3.87;1.00;;;;;;;22.67;85.93;100153.19;5054010;57;1138684;-65
2023/08/04 11:56:59;;;;;;;6.53;1.22;;;;;;;22.84;83.16;100164.44;5052666;57;1224197;-67
2023/08/04 12:02:06;;;;;;;6.77;1.40;;;;;;;22.88;84.14;100162.99;5112449;56;1191920;-66
2023/08/04 12:07:13;;;;;;;1.42;1.02;;;;;;;23.21;82.14;100167.02;5149522;56;1139185;-66
2023/08/04 12:12:18;;;;;;;2.00;1.00;;;;;;;23.44;80.62;100153.05;5128083;56;1138717;-67
2023/08/04 12:17:42;;;;;;;1.80;0.93;;;;;;;23.44;79.67;100155.75;5127779;56;1138527;-66
2023/08/04 12:22:48;;;;;;;2.75;1.10;;;;;;;23.38;77.36;100163.33;5148369;56;1138756;-66
2023/08/04 12:27:54;;;;;;;1.10;0.85;;;;;;;23.44;75.81;100163.33;5118204;56;1138621;-67
2023/08/04 12:32:59;;;;;;;1.75;0.90;;;;;;;23.66;75.82;100172.04;5108359;56;1138705;-65
2023/08/04 12:38:05;;;;;;;1.30;1.03;;;;;;;23.61;76.18;100169.66;5044206;57;1139066;-67
2023/08/04 12:43:10;;;;;;;3.22;1.30;;;;;;;23.61;76.18;100169.66;5063540;57;1138591;-67
2023/08/04 12:48:16;;;;;;;2.47;1.20;;;;;;;23.99;75.49;100174.59;5044087;57;1138447;-66
2023/08/04 12:53:22;;;;;;;1.85;1.30;;;;;;;23.99;75.49;100174.59;5043734;57;1138538;-65
2023/08/04 12:58:27;;;;;;;2.47;1.02;;;;;;;24.25;71.63;100172.33;5039651;57;1138969;-67
2023/08/04 13:03:33;;;;;;;1.50;1.40;;;;;;;24.43;68.37;100171.61;5131241;56;1138614;-66
2023/08/04 13:08:38;;;;;;;4.53;1.17;;;;;;;24.39;69.83;100172.56;5143624;56;1138486;-66
2023/08/04 13:13:45;;;;;;;4.63;1.17;;;;;;;24.42;71.89;100176.19;5158656;56;1138716;-67
2023/08/04 13:18:52;;;;;;;2.58;1.25;;;;;;;24.53;71.73;100182.23;5057344;56;1138474;-67
2023/08/04 13:23:57;;;;;;;1.62;1.00;;;;;;;24.75;69.69;100185.40;5057003;56;1138771;-66
2023/08/04 13:29:03;;;;;;;13.58;4.75;;;;;;;24.89;68.27;100184.80;5066707;56;1138846;-68
2023/08/04 13:34:09;;;;;;;5.80;1.40;;;;;;;24.99;68.24;100185.16;5129472;55;1140775;-66
2023/08/04 13:39:14;;;;;;;1.70;0.90;;;;;;;25.02;66.93;100192.00;5056970;57;1138829;-66
2023/08/04 13:44:20;;;;;;;3.80;1.42;;;;;;;25.00;67.05;100205.75;5056772;57;1138880;-66
2023/08/04 13:49:25;;;;;;;2.17;1.17;;;;;;;25.17;68.88;100212.80;5076682;57;1139125;-66
2023/08/04 13:54:31;;;;;;;1.95;1.42;;;;;;;25.35;65.73;100216.91;5053242;57;1138815;-65
2023/08/04 13:59:36;;;;;;;10.95;1.10;;;;;;;25.19;65.82;100213.41;5070149;56;1138812;-65
2023/08/04 14:04:42;;;;;;;5.03;0.90;;;;;;;25.27;65.29;100213.64;5161678;55;1140714;-67
2023/08/04 14:09:48;;;;;;;6.17;1.35;;;;;;;25.27;64.29;100221.76;5137203;56;1138881;-66
2023/08/04 14:14:54;;;;;;;0.98;0.78;;;;;;;25.36;64.74;100221.24;5053853;57;1138957;-67
2023/08/04 14:20:05;;;;;;;5.58;1.02;;;;;;;25.41;61.97;100227.35;5069691;57;1138656;-67
2023/08/04 14:25:11;;;;;;;3.87;0.90;;;;;;;25.54;61.61;100225.34;5074480;57;1138694;-66
2023/08/04 14:30:17;;;;;;;3.95;0.90;;;;;;;25.59;59.22;100234.98;5085588;56;1138549;-66
2023/08/04 14:35:23;;;;;;;2.27;1.00;;;;;;;25.49;58.10;100236.03;5086035;56;1138711;-67
2023/08/04 14:40:28;;;;;;;1.12;0.82;;;;;;;25.43;60.23;100245.03;5074124;57;1138877;-67
2023/08/04 14:45:34;;;;;;;1.27;1.15;;;;;;;25.25;60.97;100250.40;5054026;57;1138821;-66
2023/08/04 14:50:41;;;;;;;6.90;1.20;;;;;;;25.24;61.54;100249.57;5107836;56;1138948;-66
2023/08/04 14:55:47;;;;;;;2.45;0.98;;;;;;;25.46;61.71;100262.20;5120178;56;1138719;-66
2023/08/04 15:00:53;;;;;;;2.22;1.00;;;;;;;25.48;59.85;100267.39;5049593;57;1138516;-67
2023/08/04 15:05:58;;;;;;;4.47;1.10;;;;;;;25.52;59.81;100248.27;5049309;57;1138583;-66
2023/08/04 15:11:05;;;;;;;3.44;0.90;;;;;;;25.68;60.59;100250.44;5048839;57;1138873;-68
2023/08/04 15:16:11;;;;;;;1.85;1.00;;;;;;;25.67;55.71;100258.27;5078730;57;1138972;-67
2023/08/04 15:21:16;;;;;;;2.02;1.20;;;;;;;25.47;55.63;100264.38;5079965;56;1138968;-66
2023/08/04 15:26:22;;;;;;;6.20;1.35;;;;;;;25.22;55.69;100267.91;5058659;56;1138799;-67
2023/08/04 15:31:27;;;;;;;8.30;1.20;;;;;;;25.27;57.29;100272.67;5146887;56;1138535;-67
2023/08/04 15:36:33;;;;;;;5.67;1.32;;;;;;;25.29;57.43;100262.98;5070176;56;1138812;-66
2023/08/04 15:41:39;;;;;;;4.20;1.92;;;;;;;25.11;58.47;100256.45;5058489;57;1138797;-65
2023/08/04 15:46:45;;;;;;;5.78;1.27;;;;;;;25.05;58.81;100263.28;5132210;56;1138554;-66
2023/08/04 15:51:50;;;;;;;5.20;2.40;;;;;;;24.96;59.82;100260.00;5143213;56;1138739;-65
2023/08/04 15:56:56;;;;;;;1.85;1.02;;;;;;;24.94;59.46;100259.38;5143643;56;1138780;-67
2023/08/04 16:02:02;;;;;;;12.25;3.00;;;;;;;24.73;58.07;100265.95;5143712;56;1138701;-66
2023/08/04 16:07:07;;;;;;;3.17;1.27;;;;;;;24.73;58.07;100265.95;5079700;56;1140854;-66
2023/08/04 16:12:13;;;;;;;9.27;1.00;;;;;;;24.59;57.79;100256.27;5054980;57;1138568;-66
2023/08/04 16:17:19;;;;;;;3.02;1.07;;;;;;;24.54;58.98;100269.59;5043798;57;1139063;-67
2023/08/04 16:22:24;;;;;;;3.47;0.97;;;;;;;24.55;60.69;100268.55;5063382;57;1138969;-66
2023/08/04 16:27:30;;;;;;;1.55;1.45;;;;;;;24.55;60.69;100268.55;5062329;56;1138803;-67
2023/08/04 16:32:35;;;;;;;2.75;1.82;;;;;;;24.51;61.69;100268.14;5059628;56;1138745;-66
2023/08/04 16:37:41;;;;;;;16.48;5.42;;;;;;;24.45;63.50;100269.52;5143752;56;1138798;-65
2023/08/04 16:42:47;;;;;;;7.67;3.85;;;;;;;24.40;65.81;100274.77;5123621;56;1140905;-66
2023/08/04 16:47:52;;;;;;;9.38;4.03;;;;;;;24.36;67.15;100268.95;5122544;56;1138920;-67
2023/08/04 16:52:59;;;;;;;6.12;2.17;;;;;;;24.40;68.33;100266.65;5130997;56;1138578;-66
2023/08/04 16:58:04;;;;;;;9.25;5.53;;;;;;;24.49;68.44;100269.41;5113229;56;1138684;-65
2023/08/04 17:03:10;;;;;;;4.57;3.57;;;;;;;24.49;68.88;100275.64;5116074;56;1138920;-65
2023/08/04 17:08:16;;;;;;;4.78;1.92;;;;;;;24.45;69.26;100291.98;5138776;55;1138932;-66
2023/08/04 17:13:21;;;;;;;3.30;2.35;;;;;;;24.40;69.46;100292.34;5119961;55;1138835;-66
2023/08/04 17:18:27;;;;;;;8.98;3.33;;;;;;;24.39;70.23;100287.97;5080445;55;1138560;-66
2023/08/04 17:23:33;;;;;;;5.87;2.87;;;;;;;24.37;70.13;100284.65;5081169;56;1138638;-66
2023/08/04 17:28:38;;;;;;;4.47;2.20;;;;;;;24.35;70.65;100286.73;5132440;55;1138735;-66
2023/08/04 17:33:44;;;;;;;4.87;2.10;;;;;;;24.36;70.81;100287.04;5050813;56;1138602;-66
2023/08/04 17:38:49;;;;;;;5.05;1.98;;;;;;;24.32;70.57;100291.20;5075341;56;1138771;-66
2023/08/04 17:43:55;;;;;;;2.77;2.37;;;;;;;24.30;71.34;100295.47;5122984;56;1138764;-66
2023/08/04 17:49:01;;;;;;;1.67;1.57;;;;;;;24.33;72.50;100307.73;5055213;57;1138807;-67
2023/08/04 17:54:06;;;;;;;5.73;2.30;;;;;;;24.35;72.46;100307.83;5054796;57;1188298;-66
2023/08/04 17:59:12;;;;;;;3.55;1.82;;;;;;;24.34;72.34;100317.50;5150540;56;1138436;-66
2023/08/04 18:04:17;;;;;;;4.78;2.05;;;;;;;24.38;73.30;100310.11;5135489;56;1139010;-66
2023/08/04 18:09:23;;;;;;;15.40;2.83;;;;;;;24.35;72.93;100309.19;5134569;56;1138870;-67
2023/08/04 18:14:29;;;;;;;12.00;4.15;;;;;;;24.31;73.26;100302.54;5160089;56;1140852;-66
2023/08/04 18:19:34;;;;;;;6.12;3.30;;;;;;;24.26;73.51;100308.30;5120884;56;1140794;-66
2023/08/04 18:24:40;;;;;;;12.45;4.37;;;;;;;24.19;73.77;100306.41;5103041;56;1138797;-66
2023/08/04 18:29:45;;;;;;;8.55;4.85;;;;;;;24.17;74.14;100313.89;5147635;56;1140923;-66
2023/08/04 18:34:51;;;;;;;8.18;4.17;;;;;;;24.16;74.69;100324.39;5124740;56;1138949;-66
2023/08/04 18:40:04;;;;;;;6.22;4.10;;;;;;;24.11;73.98;100330.13;5111566;56;1138467;-67
2023/08/04 18:45:05;;;;;;;11.78;4.87;;;;;;;24.09;74.88;100340.32;5076484;56;1138848;-66
2023/08/04 18:50:11;;;;;;;19.32;6.05;;;;;;;24.02;75.96;100351.65;5074611;56;1140505;-66
2023/08/04 18:55:17;;;;;;;17.82;7.15;;;;;;;23.97;76.86;100356.35;5115888;56;1141072;-66
2023/08/04 19:00:24;;;;;;;29.07;8.50;;;;;;;23.92;77.40;100368.81;5127903;56;1140827;-67
2023/08/04 19:05:29;;;;;;;57.20;11.12;;;;;;;23.87;78.26;100374.84;5138751;56;1141085;-65
2023/08/04 19:10:35;;;;;;;90.83;30.27;;;;;;;23.77;78.75;100379.84;5077856;56;1142918;-67
2023/08/04 19:15:41;;;;;;;94.55;45.17;;;;;;;23.61;79.35;100388.35;5073799;56;1142890;-66
2023/08/04 19:20:46;;;;;;;18.10;9.30;;;;;;;23.47;80.11;100401.81;5070180;56;1143087;-66
2023/08/04 19:25:52;;;;;;;19.15;10.23;;;;;;;23.03;80.08;100412.30;5079319;56;1140750;-67
2023/08/04 19:31:01;;;;;;;28.00;10.25;;;;;;;22.88;82.25;100438.59;5091896;56;1143124;-66
2023/08/04 19:36:07;;;;;;;28.33;9.33;;;;;;;22.85;83.03;100434.94;5053505;56;1142937;-65
2023/08/04 19:41:13;;;;;;;39.67;15.63;;;;;;;22.79;83.07;100440.61;5120020;56;1140778;-65
2023/08/04 19:46:18;;;;;;;37.77;15.70;;;;;;;22.74;84.05;100445.23;4990990;57;1142857;-67
2023/08/04 19:51:24;;;;;;;39.08;17.27;;;;;;;22.77;84.91;100444.02;4921756;58;1142972;-66
2023/08/04 19:56:29;;;;;;;17.75;6.67;;;;;;;22.71;84.47;100454.23;5124350;56;1143079;-68
2023/08/04 20:01:36;;;;;;;22.93;10.40;;;;;;;22.44;84.14;100455.95;5066301;56;1141201;-66
2023/08/04 20:06:41;;;;;;;30.10;13.05;;;;;;;22.37;85.80;100450.50;5078755;56;1142962;-67
2023/08/04 20:11:47;;;;;;;45.88;12.33;;;;;;;22.40;86.62;100454.67;5136917;56;1143071;-66
2023/08/04 20:16:52;;;;;;;22.40;9.60;;;;;;;22.40;87.11;100445.24;5077949;56;1142854;-67
2023/08/04 20:21:58;;;;;;;38.00;12.82;;;;;;;22.36;87.45;100439.92;5113577;56;1140867;-66
2023/08/04 20:27:04;;;;;;;37.17;14.05;;;;;;;22.29;87.40;100447.98;5127201;56;1142942;-67
2023/08/04 20:39:03;;;;;;;43.45;14.73;;;;;;;22.09;87.81;100457.77;5119068;56;1143092;-67
2023/08/04 20:44:09;;;;;;;43.57;20.83;;;;;;;21.79;88.26;100466.48;5041678;56;1143021;-67
2023/08/04 20:49:14;;;;;;;33.33;13.62;;;;;;;21.79;89.73;100473.22;5147564;56;1143091;-67
2023/08/04 20:54:21;;;;;;;36.45;16.97;;;;;;;21.81;90.25;100476.55;5046925;56;1143046;-66
2023/08/04 20:59:27;;;;;;;41.20;18.70;;;;;;;21.85;90.66;100476.98;5075587;56;1143023;-68
2023/08/04 21:04:33;;;;;;;44.48;18.50;;;;;;;21.87;90.64;100477.11;5139174;56;1142860;-65
2023/08/04 21:09:39;;;;;;;38.42;16.35;;;;;;;21.58;89.26;100482.62;5117145;56;1143119;-66
2023/08/04 21:14:45;;;;;;;46.05;17.77;;;;;;;21.34;90.68;100476.59;5084848;56;1143044;-66
2023/08/04 21:19:50;;;;;;;40.00;17.52;;;;;;;21.38;92.17;100480.58;5121583;56;1142821;-66
2023/08/04 21:24:56;;;;;;;35.15;15.38;;;;;;;21.41;92.59;100472.61;5113237;56;1143284;-66
2023/08/04 21:30:02;;;;;;;22.77;11.20;;;;;;;21.36;92.51;100471.86;5117883;56;1142821;-67
2023/08/04 21:35:08;;;;;;;9.97;6.10;;;;;;;21.29;92.79;100478.17;5124966;56;1142973;-66
2023/08/04 21:40:13;;;;;;;18.12;7.50;;;;;;;21.29;93.01;100478.17;5146969;56;1138820;-67
2023/08/04 21:45:19;;;;;;;22.13;8.28;;;;;;;21.32;93.80;100481.32;5104198;56;1140755;-66
2023/08/04 21:50:25;;;;;;;16.40;9.03;;;;;;;21.37;93.96;100482.94;5126396;56;1140928;-66
2023/08/04 21:55:30;;;;;;;16.48;9.08;;;;;;;21.37;93.95;100481.59;5102757;56;1140680;-65
2023/08/04 22:00:36;;;;;;;25.65;9.95;;;;;;;21.30;93.70;100485.22;5087769;56;1140913;-66
2023/08/04 22:05:41;;;;;;;26.20;11.85;;;;;;;21.19;93.84;100483.86;5048962;56;1140733;-67
2023/08/04 22:10:47;;;;;;;12.63;6.80;;;;;;;21.07;93.84;100486.69;5063118;57;1142901;-66
2023/08/04 22:15:52;;;;;;;13.80;6.05;;;;;;;21.04;94.38;100484.36;5042853;57;1141045;-66
2023/08/04 22:21:00;;;;;;;18.70;6.90;;;;;;;20.95;94.27;100469.34;5043424;57;1141226;-66
2023/08/04 22:26:07;;;;;;;12.40;5.85;;;;;;;20.79;94.74;100473.56;5042742;57;1141276;-66
2023/08/04 22:31:12;;;;;;;11.70;4.92;;;;;;;20.59;95.17;100479.52;5063182;57;1140763;-67
2023/08/04 22:36:18;;;;;;;12.23;5.05;;;;;;;20.49;95.17;100478.11;5043294;57;1140738;-66
2023/08/04 22:41:24;;;;;;;17.83;7.07;;;;;;;20.42;95.67;100479.37;5043251;57;1140803;-66
2023/08/04 22:46:29;;;;;;;13.17;6.30;;;;;;;20.44;96.69;100474.65;5062864;57;1140904;-67
2023/08/04 22:51:35;;;;;;;10.32;4.92;;;;;;;20.45;96.80;100479.01;5043420;57;1140943;-66
2023/08/04 22:56:40;;;;;;;12.93;5.95;;;;;;;20.26;95.80;100487.05;5043018;57;1140614;-67
2023/08/04 23:01:46;;;;;;;15.15;7.75;;;;;;;20.13;96.38;100481.47;5139217;56;1141035;-66
2023/08/04 23:06:52;;;;;;;12.15;7.12;;;;;;;20.12;97.24;100478.45;5091664;56;1140836;-66
2023/08/04 23:11:57;;;;;;;14.28;7.62;;;;;;;20.13;97.29;100476.09;5043546;56;1140853;-67